YRMD

Details ICAO YRMD
Name Richmond
Region Australia
Timezone Australia/Brisbane (UTC+10.0)
Plans Departing 1
Arriving 3
Stats Elevation 676 ft / 206 m (AMSL)
Location -20.701166° 143.113675°
Runways 1
Magnetic Variation 6.677° E
Sunrise 2017-12-11 19:41:34 UTC / 2017-12-12 05:41:34 Local
Sunset 2017-12-12 09:03:29 UTC / 2017-12-12 19:03:29 Local
Advertisement - Login to hide

Runways

ID Width Length Bearing (true) Bearing (mag) Surface Threshold Offset Overrun Length
09 98 ft / 30 m 4,986 ft / 1,520 m 98.70° 92.02° Asphalt 0 ft / 0 m 0 ft / 0 m
27 98 ft / 30 m 4,986 ft / 1,520 m 278.70° 272.02° Asphalt 0 ft / 0 m 0 ft / 0 m

Map

Weather


0- 5 10 15 20 25 30 35+ Temperature / ° C

Clouds and Precipitation
Forecast for 2017-12-12 06:00 UTC. Updated an hour ago

Ground ~20,000 ft ~40,000 ft Winds

METAR

YRMD 120600Z AUTO 12015KT 9999 // NCD 39/08 Q1007

TAF

Not found

Frequencies

Unicom 126.70 MHz CTAF
Warning: Do not use this data for real-world aviation or navigation. No guarantee of current accuracy is given.